createdAt,value
2018-05-15T00:01:05.387Z,62.77
2018-05-15T00:03:36.711Z,63.28
2018-05-15T00:06:08.073Z,63.08
2018-05-15T00:08:37.880Z,63.57
2018-05-15T00:11:07.846Z,63.50
2018-05-15T00:13:39.806Z,64.04
2018-05-15T00:16:11.363Z,64.03
2018-05-15T00:18:42.757Z,64.18
2018-05-15T00:21:12.848Z,64.80
2018-05-15T00:23:42.558Z,64.71
2018-05-15T00:26:12.240Z,64.71
2018-05-15T00:28:45.254Z,65.40
2018-05-15T00:31:16.307Z,65.27
2018-05-15T00:33:46.301Z,65.35
2018-05-15T00:36:16.315Z,65.73
2018-05-15T00:38:46.329Z,66.32
2018-05-15T00:41:17.853Z,66.71
2018-05-15T00:43:49.432Z,66.73
2018-05-15T00:46:20.897Z,66.89
2018-05-15T00:48:50.819Z,66.74
2018-05-15T00:51:22.233Z,66.76
2018-05-15T00:53:53.668Z,66.73
2018-05-15T00:56:23.628Z,66.77
2018-05-15T00:58:55.368Z,66.97
2018-05-15T01:01:26.737Z,67.06
2018-05-15T01:03:57.792Z,67.04
2018-05-15T01:06:28.586Z,67.10
2018-05-15T01:08:59.574Z,67.06
2018-05-15T01:11:30.674Z,67.16
2018-05-15T01:14:02.773Z,67.36
2018-05-15T01:16:32.691Z,67.47
2018-05-15T01:19:04.174Z,67.62
2018-05-15T01:21:35.773Z,67.98
2018-05-15T01:24:07.222Z,68.07
2018-05-15T01:26:37.138Z,67.93
2018-05-15T01:29:08.575Z,68.17
2018-05-15T01:31:40.063Z,68.53
2018-05-15T01:34:11.692Z,68.87
2018-05-15T01:36:43.347Z,68.79
2018-05-15T01:39:13.288Z,68.71
2018-05-15T01:41:44.730Z,68.79
2018-05-15T01:44:16.293Z,68.56
2018-05-15T01:46:48.394Z,68.56
2018-05-15T01:49:18.668Z,68.85
2018-05-15T01:51:50.133Z,69.18
2018-05-15T01:54:21.050Z,69.37
2018-05-15T01:56:52.692Z,69.02
2018-05-15T01:59:24.143Z,69.56
2018-05-15T02:01:54.567Z,69.36
2018-05-15T02:04:26.643Z,69.33
2018-05-15T02:06:58.283Z,69.27
2018-05-15T02:09:28.259Z,68.94
2018-05-15T02:11:59.656Z,68.88
2018-05-15T02:14:31.192Z,68.64
2018-05-15T02:17:02.771Z,68.31
2018-05-15T02:19:34.112Z,68.06
2018-05-15T02:22:04.548Z,68.26
2018-05-15T02:24:35.313Z,68.41
2018-05-15T02:27:06.240Z,68.66
2018-05-15T02:29:36.868Z,68.55
2018-05-15T02:32:07.019Z,68.55
2018-05-15T02:34:37.355Z,68.62
2018-05-15T02:37:09.046Z,68.60
2018-05-15T02:39:40.417Z,68.38
2018-05-15T02:42:11.975Z,68.44
2018-05-15T02:44:42.391Z,68.55
2018-05-15T02:47:14.560Z,68.33
2018-05-15T02:49:46.019Z,68.32
2018-05-15T02:52:17.562Z,68.40
2018-05-15T02:54:49.015Z,68.50
2018-05-15T02:57:19.749Z,68.85
2018-05-15T02:59:51.859Z,68.84
2018-05-15T03:02:23.207Z,69.17
2018-05-15T03:04:53.839Z,69.02
2018-05-15T03:07:23.832Z,68.91
2018-05-15T03:09:55.207Z,68.72
2018-05-15T03:12:25.156Z,68.50
2018-05-15T03:14:55.507Z,68.62
2018-05-15T03:17:27.062Z,68.43
2018-05-15T03:19:56.457Z,68.53
2018-05-15T03:22:26.803Z,68.65
2018-05-15T03:24:58.763Z,68.66
2018-05-15T03:27:30.313Z,68.69
2018-05-15T03:30:01.864Z,68.91
2018-05-15T03:32:31.860Z,68.61
2018-05-15T03:35:01.980Z,68.74
2018-05-15T03:37:32.853Z,68.75
2018-05-15T03:40:04.407Z,69.02
2018-05-15T03:42:35.837Z,69.34
2018-05-15T03:45:07.487Z,69.30
2018-05-15T03:47:39.012Z,69.71
2018-05-15T03:50:10.418Z,69.42
2018-05-15T03:52:41.835Z,70.03
2018-05-15T03:55:12.486Z,69.59
2018-05-15T03:57:42.693Z,69.04
2018-05-15T04:00:52.620Z,68.55
2018-05-15T04:04:16.010Z,68.15
2018-05-15T04:07:23.374Z,67.30
2018-05-15T04:09:54.939Z,66.29
2018-05-15T04:12:24.952Z,65.49
2018-05-15T04:14:56.623Z,64.44
2018-05-15T04:17:28.504Z,63.98
2018-05-15T04:20:00.320Z,62.80
2018-05-15T04:22:30.349Z,61.63
2018-05-15T04:25:01.873Z,60.21
2018-05-15T04:27:33.840Z,59.06
2018-05-15T04:30:03.481Z,58.20
2018-05-15T04:32:33.391Z,57.43
2018-05-15T04:35:03.457Z,56.35
2018-05-15T04:37:34.546Z,55.82
2018-05-15T04:40:06.019Z,55.75
2018-05-15T04:42:37.320Z,54.65
2018-05-15T04:45:09.223Z,53.53
2018-05-15T04:47:39.149Z,53.40
2018-05-15T04:50:10.673Z,52.25
2018-05-15T04:52:42.146Z,50.88
2018-05-15T04:55:13.279Z,51.37
2018-05-15T04:57:44.331Z,51.35
2018-05-15T05:00:15.876Z,50.61
2018-05-15T05:02:45.214Z,50.03
2018-05-15T05:05:16.686Z,49.16
2018-05-15T05:07:46.682Z,49.85
2018-05-15T05:10:17.304Z,48.54
2018-05-15T05:12:48.822Z,47.18
2018-05-15T05:15:20.353Z,46.64
2018-05-15T05:17:50.264Z,45.42
2018-05-15T05:20:20.208Z,44.92
2018-05-15T05:22:51.739Z,45.20
2018-05-15T05:25:21.646Z,45.23
2018-05-15T05:27:53.180Z,45.86
2018-05-15T05:30:24.520Z,44.19
2018-05-15T05:32:56.000Z,43.34
2018-05-15T05:35:26.037Z,39.85
2018-05-15T05:37:56.056Z,40.82
2018-05-15T05:40:27.199Z,40.92
2018-05-15T05:42:58.201Z,40.02
2018-05-15T05:45:29.536Z,39.75
2018-05-15T05:48:00.876Z,40.99
2018-05-15T05:50:32.104Z,40.89
2018-05-15T05:53:03.696Z,39.75
2018-05-15T05:55:35.064Z,36.95
2018-05-15T05:58:04.608Z,37.43
2018-05-15T06:00:35.511Z,34.16
2018-05-15T06:03:06.819Z,35.58
2018-05-15T06:05:37.957Z,32.74
2018-05-15T06:08:09.031Z,33.26
2018-05-15T06:10:40.389Z,34.25
2018-05-15T06:13:11.855Z,33.90
2018-05-15T06:15:43.337Z,32.99
2018-05-15T06:18:15.075Z,32.87
2018-05-15T06:20:46.837Z,33.12
2018-05-15T06:23:18.266Z,33.62
2018-05-15T06:25:48.171Z,32.24
2018-05-15T06:28:18.009Z,32.07
2018-05-15T06:30:49.701Z,31.61
2018-05-15T06:33:20.542Z,31.17
2018-05-15T06:35:50.504Z,32.21
2018-05-15T06:38:20.505Z,30.35
2018-05-15T06:40:51.472Z,29.99
2018-05-15T06:43:22.361Z,29.88
2018-05-15T06:45:53.847Z,29.82
2018-05-15T06:48:25.257Z,31.31
2018-05-15T06:50:55.787Z,31.41
2018-05-15T06:53:26.362Z,29.06
2018-05-15T06:55:57.511Z,29.98
2018-05-15T06:58:26.974Z,31.05
2018-05-15T07:00:58.303Z,31.97
2018-05-15T07:03:29.667Z,29.69
2018-05-15T07:05:58.720Z,29.27
2018-05-15T07:08:27.816Z,29.48
2018-05-15T07:10:57.701Z,28.52
2018-05-15T07:13:29.256Z,28.19
2018-05-15T07:16:01.016Z,28.66
2018-05-15T07:18:30.842Z,27.54
2018-05-15T07:21:00.744Z,26.99
2018-05-15T07:23:30.149Z,27.95
2018-05-15T07:26:01.494Z,27.74
2018-05-15T07:28:32.902Z,28.15
2018-05-15T07:31:04.503Z,26.88
2018-05-15T07:33:35.799Z,25.54
2018-05-15T07:36:07.165Z,25.53
2018-05-15T07:38:38.885Z,25.42
2018-05-15T07:41:10.439Z,25.14
2018-05-15T07:43:41.829Z,25.17
2018-05-15T07:46:13.172Z,24.56
2018-05-15T07:48:44.493Z,25.73
2018-05-15T07:51:15.785Z,25.52
2018-05-15T07:53:45.949Z,25.66
2018-05-15T07:56:17.153Z,29.16
2018-05-15T07:58:47.060Z,24.62
2018-05-15T08:01:16.667Z,25.22
2018-05-15T08:03:46.696Z,27.04
2018-05-15T08:06:17.337Z,24.11
2018-05-15T08:08:47.281Z,24.75
2018-05-15T08:11:18.888Z,24.17
2018-05-15T08:13:50.197Z,22.94
2018-05-15T08:16:20.049Z,25.46
2018-05-15T08:18:50.674Z,22.73
2018-05-15T08:21:21.998Z,22.78
2018-05-15T08:23:53.091Z,21.52
2018-05-15T08:26:23.595Z,21.99
2018-05-15T08:28:55.053Z,20.63
2018-05-15T08:31:25.384Z,20.57
2018-05-15T08:33:56.754Z,21.39
2018-05-15T08:36:27.163Z,20.81
2018-05-15T08:38:59.747Z,21.17
2018-05-15T08:41:31.730Z,24.96
2018-05-15T08:44:02.900Z,23.26
2018-05-15T08:46:33.790Z,22.55
2018-05-15T08:49:05.222Z,22.71
2018-05-15T08:51:35.855Z,23.74
2018-05-15T08:54:05.584Z,25.93
2018-05-15T08:56:35.925Z,26.31
2018-05-15T08:59:07.155Z,23.75
2018-05-15T09:01:38.356Z,22.50
2018-05-15T09:04:08.731Z,22.64
2018-05-15T09:06:38.533Z,22.72
2018-05-15T09:09:10.065Z,22.60
2018-05-15T09:11:41.618Z,24.18
2018-05-15T09:14:13.879Z,24.17
2018-05-15T09:16:45.720Z,23.66
2018-05-15T09:19:16.902Z,20.83
2018-05-15T09:21:48.299Z,22.86
2018-05-15T09:24:18.176Z,22.12
2018-05-15T09:26:50.140Z,19.60
2018-05-15T09:29:20.069Z,20.60
2018-05-15T09:31:50.490Z,20.14
2018-05-15T09:34:21.887Z,20.58
2018-05-15T09:36:53.169Z,19.91
2018-05-15T09:39:24.605Z,18.44
2018-05-15T09:41:56.188Z,19.35
2018-05-15T09:44:27.630Z,21.48
2018-05-15T09:46:58.999Z,24.21
2018-05-15T09:49:30.259Z,19.50
2018-05-15T09:52:01.917Z,19.39
2018-05-15T09:54:32.935Z,18.27
2018-05-15T09:57:05.384Z,22.81
2018-05-15T09:59:36.280Z,18.50
2018-05-15T10:02:07.158Z,19.97
2018-05-15T10:04:37.571Z,17.94
2018-05-15T10:07:07.401Z,19.28
2018-05-15T10:09:39.250Z,19.94
2018-05-15T10:12:09.172Z,18.95
2018-05-15T10:14:40.491Z,18.49
2018-05-15T10:17:11.659Z,21.80
2018-05-15T10:19:41.492Z,19.01
2018-05-15T10:22:12.888Z,19.21
2018-05-15T10:24:45.302Z,21.83
2018-05-15T10:27:16.698Z,21.63
2018-05-15T10:29:47.807Z,22.10
2018-05-15T10:32:17.686Z,23.61
2018-05-15T10:34:49.024Z,22.86
2018-05-15T10:37:20.114Z,24.79
2018-05-15T10:39:50.575Z,21.38
2018-05-15T10:42:20.157Z,21.94
2018-05-15T10:44:51.586Z,21.73
2018-05-15T10:47:22.630Z,19.62
2018-05-15T10:49:53.477Z,23.59
2018-05-15T10:52:23.667Z,20.11
2018-05-15T10:54:54.198Z,22.08
2018-05-15T10:57:25.563Z,20.78
2018-05-15T10:59:56.614Z,22.17
2018-05-15T11:02:28.173Z,20.38
2018-05-15T11:04:59.557Z,20.13
2018-05-15T11:07:29.854Z,22.82
2018-05-15T11:09:59.861Z,21.92
2018-05-15T11:12:29.754Z,19.67
2018-05-15T11:15:01.175Z,21.11
2018-05-15T11:17:32.573Z,21.79
2018-05-15T11:20:40.260Z,20.30
2018-05-15T11:23:48.857Z,22.02
2018-05-15T11:26:18.744Z,20.35
2018-05-15T11:28:48.633Z,19.59
2018-05-15T11:31:20.157Z,24.86
2018-05-15T11:33:52.040Z,22.02
2018-05-15T11:36:21.946Z,21.06
2018-05-15T11:38:53.183Z,22.06
2018-05-15T11:41:23.138Z,23.88
2018-05-15T11:43:54.732Z,24.24
2018-05-15T11:46:25.204Z,22.44
2018-05-15T11:48:55.609Z,26.21
2018-05-15T11:51:26.062Z,23.98
2018-05-15T11:53:54.803Z,20.25
2018-05-15T11:56:26.196Z,24.42
2018-05-15T11:58:56.033Z,21.55
2018-05-15T12:01:27.414Z,22.41
2018-05-15T12:03:58.559Z,23.96
2018-05-15T12:06:28.363Z,24.91
2018-05-15T12:09:00.016Z,23.40
2018-05-15T12:11:31.260Z,24.38
2018-05-15T12:14:01.666Z,22.95
2018-05-15T12:16:33.089Z,21.84
2018-05-15T12:19:03.535Z,22.27
2018-05-15T12:21:32.654Z,23.25
2018-05-15T12:24:02.529Z,22.66
2018-05-15T12:26:33.834Z,24.76
2018-05-15T12:29:03.681Z,23.55
2018-05-15T12:31:33.553Z,26.98
2018-05-15T12:34:05.312Z,23.81
2018-05-15T12:36:35.210Z,27.26
2018-05-15T12:39:05.633Z,20.74
2018-05-15T12:41:36.611Z,21.52
2018-05-15T12:44:08.030Z,20.81
2018-05-15T12:46:38.880Z,23.47
2018-05-15T12:49:09.230Z,22.74
2018-05-15T12:51:39.802Z,23.76
2018-05-15T12:54:09.882Z,25.35
2018-05-15T12:56:39.375Z,22.02
2018-05-15T12:59:08.477Z,23.02
2018-05-15T13:01:39.846Z,25.10
2018-05-15T13:04:09.819Z,23.47
2018-05-15T13:06:39.634Z,22.97
2018-05-15T13:09:11.013Z,21.41
2018-05-15T13:11:42.454Z,21.17
2018-05-15T13:14:13.289Z,24.19
2018-05-15T13:16:43.146Z,25.61
2018-05-15T13:19:14.658Z,21.59
2018-05-15T13:21:45.178Z,23.14
2018-05-15T13:24:16.726Z,22.13
2018-05-15T13:26:47.764Z,25.72
2018-05-15T13:29:18.093Z,24.36
2018-05-15T13:31:47.916Z,24.95
2018-05-15T13:34:19.673Z,22.91
2018-05-15T13:36:50.189Z,23.54
2018-05-15T13:39:21.457Z,22.49
2018-05-15T13:41:51.029Z,24.62
2018-05-15T13:44:20.071Z,25.06
2018-05-15T13:46:49.442Z,24.33
2018-05-15T13:49:20.760Z,24.08
2018-05-15T13:51:50.601Z,21.64
2018-05-15T13:54:21.365Z,21.17
2018-05-15T13:56:53.288Z,22.17
2018-05-15T13:59:24.669Z,22.87
2018-05-15T14:01:56.005Z,24.26
2018-05-15T14:04:26.800Z,26.33
2018-05-15T14:06:57.991Z,23.79
2018-05-15T14:09:27.817Z,21.87
2018-05-15T14:12:00.234Z,21.97
2018-05-15T14:14:31.397Z,23.63
2018-05-15T14:17:01.204Z,23.02
2018-05-15T14:19:32.688Z,22.44
2018-05-15T14:22:02.361Z,26.04
2018-05-15T14:24:32.227Z,22.01
2018-05-15T14:27:03.122Z,22.18
2018-05-15T14:29:33.168Z,23.49
2018-05-15T14:32:02.360Z,23.05
2018-05-15T14:34:34.132Z,22.17
2018-05-15T14:37:05.513Z,23.00
2018-05-15T14:39:36.349Z,23.99
2018-05-15T14:42:42.252Z,22.19
2018-05-15T14:45:16.573Z,22.51
2018-05-15T14:47:45.629Z,24.97
2018-05-15T14:50:14.895Z,20.60
2018-05-15T14:52:45.206Z,20.80
2018-05-15T14:55:16.584Z,21.34
2018-05-15T14:57:47.176Z,21.62
2018-05-15T15:00:17.033Z,23.49
2018-05-15T15:02:46.931Z,22.31
2018-05-15T15:05:17.110Z,21.53
2018-05-15T15:07:47.264Z,21.85
2018-05-15T15:10:17.300Z,21.62
2018-05-15T15:12:48.710Z,21.87
2018-05-15T15:15:20.131Z,22.64
2018-05-15T15:17:51.555Z,23.19
2018-05-15T15:20:22.113Z,23.07
2018-05-15T15:22:52.116Z,24.36
2018-05-15T15:25:22.263Z,23.27
2018-05-15T15:27:52.831Z,22.18
2018-05-15T15:30:24.180Z,21.73
2018-05-15T15:32:55.639Z,22.81
2018-05-15T15:35:26.562Z,24.69
2018-05-15T15:37:56.246Z,23.22
2018-05-15T15:40:25.408Z,22.39
2018-05-15T15:42:55.329Z,22.25
2018-05-15T15:45:25.171Z,22.34
2018-05-15T15:47:56.451Z,22.76
2018-05-15T15:50:27.380Z,23.48
2018-05-15T15:52:58.666Z,23.78
2018-05-15T15:55:29.182Z,23.79
2018-05-15T15:58:00.676Z,23.20
2018-05-15T16:00:29.476Z,23.70
2018-05-15T16:03:00.949Z,22.95
2018-05-15T16:05:31.715Z,24.76
2018-05-15T16:08:03.188Z,21.88
2018-05-15T16:10:32.578Z,22.13
2018-05-15T16:13:03.877Z,22.97
2018-05-15T16:15:33.677Z,23.47
2018-05-15T16:18:04.945Z,22.97
2018-05-15T16:20:34.898Z,24.04
2018-05-15T16:23:05.492Z,24.04
2018-05-15T16:25:36.387Z,22.98
2018-05-15T16:28:06.277Z,24.07
2018-05-15T16:30:35.565Z,24.43
2018-05-15T16:33:05.402Z,23.60
2018-05-15T16:35:35.368Z,23.02
2018-05-15T16:38:05.406Z,23.57
2018-05-15T16:40:34.481Z,24.14
2018-05-15T16:43:04.906Z,23.65
2018-05-15T16:45:35.220Z,23.55
2018-05-15T16:48:05.872Z,25.03
2018-05-15T16:50:35.727Z,28.90
2018-05-15T16:53:05.663Z,31.22
2018-05-15T16:55:35.701Z,30.17
2018-05-15T16:58:05.574Z,31.26
2018-05-15T17:00:37.005Z,31.93
2018-05-15T17:03:06.958Z,32.25
2018-05-15T17:05:36.882Z,31.63
2018-05-15T17:08:06.985Z,32.48
2018-05-15T17:10:38.575Z,32.54
2018-05-15T17:13:08.719Z,33.00
2018-05-15T17:15:39.934Z,33.64
2018-05-15T17:18:14.423Z,33.56
2018-05-15T17:20:47.623Z,33.64
2018-05-15T17:23:19.393Z,33.07
2018-05-15T17:25:48.601Z,32.64
2018-05-15T17:28:18.678Z,33.69
2018-05-15T17:30:48.541Z,34.08
2018-05-15T17:33:20.081Z,34.05
2018-05-15T17:35:50.633Z,33.30
2018-05-15T17:38:20.586Z,34.26
2018-05-15T17:40:52.964Z,33.91
2018-05-15T17:43:22.797Z,33.89
2018-05-15T17:45:52.652Z,34.23
2018-05-15T17:48:23.994Z,35.07
2018-05-15T17:50:54.468Z,35.85
2018-05-15T17:53:24.878Z,36.98
2018-05-15T17:55:54.946Z,37.25
2018-05-15T17:58:24.116Z,37.69
2018-05-15T18:00:54.054Z,37.74
2018-05-15T18:03:24.537Z,38.14
2018-05-15T18:05:53.530Z,38.19
2018-05-15T18:08:26.637Z,38.95
2018-05-15T18:10:56.444Z,39.49
2018-05-15T18:13:27.851Z,39.42
2018-05-15T18:15:59.405Z,39.77
2018-05-15T18:18:30.270Z,39.94
2018-05-15T18:21:00.292Z,39.72
2018-05-15T18:23:30.570Z,40.21
2018-05-15T18:26:00.382Z,39.78
2018-05-15T18:28:30.831Z,39.41
2018-05-15T18:31:02.262Z,38.38
2018-05-15T18:33:32.195Z,38.34
2018-05-15T18:36:03.672Z,39.19
2018-05-15T18:38:35.227Z,38.30
2018-05-15T18:41:05.689Z,39.19
2018-05-15T18:43:35.502Z,39.28
2018-05-15T18:46:05.836Z,39.07
2018-05-15T18:48:35.896Z,39.22
2018-05-15T18:51:05.622Z,39.52
2018-05-15T18:53:36.379Z,40.20
2018-05-15T18:56:07.270Z,41.65
2018-05-15T18:58:36.504Z,41.66
2018-05-15T19:01:05.974Z,41.99
2018-05-15T19:03:37.307Z,42.61
2018-05-15T19:06:07.277Z,43.14
2018-05-15T19:08:39.047Z,43.86
2018-05-15T19:11:10.311Z,44.28
2018-05-15T19:13:41.758Z,44.71
2018-05-15T19:16:12.241Z,44.83
2018-05-15T19:18:42.139Z,45.41
2018-05-15T19:21:12.175Z,45.46
2018-05-15T19:23:42.220Z,45.61
2018-05-15T19:26:13.568Z,45.83
2018-05-15T19:28:44.876Z,45.89
2018-05-15T19:31:18.101Z,46.57
2018-05-15T19:33:54.773Z,46.41
2018-05-15T19:36:33.728Z,46.79
2018-05-15T19:39:08.705Z,46.97
2018-05-15T19:41:40.247Z,47.16
2018-05-15T19:44:10.207Z,47.62
2018-05-15T19:46:40.198Z,47.24
2018-05-15T19:49:10.450Z,47.57
2018-05-15T19:51:39.839Z,47.79
2018-05-15T19:54:09.827Z,47.62
2018-05-15T19:56:39.461Z,46.75
2018-05-15T19:59:10.901Z,46.93
2018-05-15T20:01:40.212Z,46.85
2018-05-15T20:04:11.930Z,47.18
2018-05-15T20:06:43.404Z,47.02
2018-05-15T20:09:13.334Z,46.95
2018-05-15T20:11:43.979Z,46.98
2018-05-15T20:14:15.388Z,47.34
2018-05-15T20:16:46.997Z,46.64
2018-05-15T20:19:18.219Z,46.36
2018-05-15T20:21:48.024Z,46.96
2018-05-15T20:24:17.943Z,46.16
2018-05-15T20:26:49.312Z,46.48
2018-05-15T20:29:19.450Z,46.27
2018-05-15T20:31:48.782Z,46.40
2018-05-15T20:34:18.626Z,46.14
2018-05-15T20:36:50.025Z,46.52
2018-05-15T20:39:22.443Z,46.62
2018-05-15T20:41:53.881Z,46.96
2018-05-15T20:44:23.902Z,47.13
2018-05-15T20:46:55.306Z,47.66
2018-05-15T20:49:26.724Z,47.61
2018-05-15T20:51:56.741Z,48.35
2018-05-15T20:54:26.645Z,48.40
2018-05-15T20:56:57.889Z,47.99
2018-05-15T20:59:27.905Z,48.19
2018-05-15T21:01:58.452Z,48.10
2018-05-15T21:04:29.845Z,48.01
2018-05-15T21:07:01.258Z,48.41
2018-05-15T21:09:32.652Z,48.69
2018-05-15T21:12:03.387Z,48.98
2018-05-15T21:14:33.325Z,48.89
2018-05-15T21:17:04.677Z,48.98
2018-05-15T21:19:34.602Z,48.62
2018-05-15T21:22:06.161Z,48.91
2018-05-15T21:24:37.078Z,49.00
2018-05-15T21:27:08.558Z,49.41
2018-05-15T21:29:39.944Z,50.09
2018-05-15T21:32:11.734Z,49.94
2018-05-15T21:34:43.198Z,49.82
2018-05-15T21:37:15.379Z,50.12
2018-05-15T21:39:46.836Z,50.51
2018-05-15T21:42:16.839Z,50.27
2018-05-15T21:44:46.767Z,50.38
2018-05-15T21:47:18.185Z,50.63
2018-05-15T21:49:48.025Z,51.39
2018-05-15T21:52:18.025Z,51.41
2018-05-15T21:54:48.030Z,50.14
2018-05-15T21:57:18.776Z,50.36
2018-05-15T21:59:49.164Z,50.59
2018-05-15T22:02:19.077Z,50.65
2018-05-15T22:04:50.578Z,51.11
2018-05-15T22:07:20.445Z,51.02
2018-05-15T22:09:52.130Z,50.82
2018-05-15T22:13:00.047Z,50.88
2018-05-15T22:16:06.748Z,50.74
2018-05-15T22:19:14.422Z,50.73
2018-05-15T22:22:18.145Z,50.23
2018-05-15T22:24:48.062Z,50.62
2018-05-15T22:27:18.036Z,51.17
2018-05-15T22:29:49.925Z,51.00
2018-05-15T22:32:21.617Z,51.90
2018-05-15T22:34:53.014Z,51.80
2018-05-15T22:37:22.916Z,51.60
2018-05-15T22:39:55.315Z,51.63
2018-05-15T22:42:25.246Z,52.53
2018-05-15T22:44:57.665Z,52.90
2018-05-15T22:47:31.102Z,52.32
2018-05-15T22:50:02.662Z,51.88
2018-05-15T22:52:35.032Z,52.43
2018-05-15T22:55:05.144Z,52.11
2018-05-15T22:57:35.203Z,52.95
2018-05-15T23:00:05.163Z,52.00
2018-05-15T23:02:36.924Z,52.55
2018-05-15T23:05:06.943Z,52.31
2018-05-15T23:07:38.811Z,52.46
2018-05-15T23:10:09.203Z,52.83
2018-05-15T23:12:41.157Z,53.67
2018-05-15T23:15:12.601Z,53.16
2018-05-15T23:17:41.997Z,53.68
2018-05-15T23:20:13.505Z,54.01
2018-05-15T23:22:46.288Z,54.55
2018-05-15T23:25:16.228Z,55.84
2018-05-15T23:27:46.231Z,56.17
2018-05-15T23:30:17.833Z,55.45
2018-05-15T23:32:49.850Z,55.63
2018-05-15T23:35:19.103Z,56.13
2018-05-15T23:37:50.539Z,56.29
2018-05-15T23:40:22.525Z,56.69
2018-05-15T23:42:54.417Z,57.76
2018-05-15T23:45:25.951Z,57.80
2018-05-15T23:47:57.732Z,58.38
2018-05-15T23:50:29.134Z,57.97
2018-05-15T23:52:58.634Z,59.25
2018-05-15T23:55:30.554Z,58.75
2018-05-15T23:58:00.860Z,59.38
